sensor_id;sensor_type;location;lat;lon;timestamp;pressure;altitude;pressure_sealevel;temperature
38114;BMP180;23926;53.222;6.354;2022-12-18T00:00:26;102538.00;;;0.70
38114;BMP180;23926;53.222;6.354;2022-12-18T00:02:51;102544.00;;;0.70
38114;BMP180;23926;53.222;6.354;2022-12-18T00:05:16;102536.00;;;0.70
38114;BMP180;23926;53.222;6.354;2022-12-18T00:07:42;102537.00;;;0.70
38114;BMP180;23926;53.222;6.354;2022-12-18T00:10:07;102533.00;;;0.60
38114;BMP180;23926;53.222;6.354;2022-12-18T00:12:33;102525.00;;;0.50
38114;BMP180;23926;53.222;6.354;2022-12-18T00:14:58;102520.00;;;0.40
38114;BMP180;23926;53.222;6.354;2022-12-18T00:17:23;102508.00;;;0.30
38114;BMP180;23926;53.222;6.354;2022-12-18T00:19:48;102518.00;;;0.30
38114;BMP180;23926;53.222;6.354;2022-12-18T00:22:14;102517.00;;;0.30
38114;BMP180;23926;53.222;6.354;2022-12-18T00:24:39;102511.00;;;0.30
38114;BMP180;23926;53.222;6.354;2022-12-18T00:27:04;102519.00;;;0.30
38114;BMP180;23926;53.222;6.354;2022-12-18T00:29:29;102517.00;;;0.40
38114;BMP180;23926;53.222;6.354;2022-12-18T00:31:55;102539.00;;;0.30
38114;BMP180;23926;53.222;6.354;2022-12-18T00:34:20;102539.00;;;0.30
38114;BMP180;23926;53.222;6.354;2022-12-18T00:36:46;102537.00;;;0.40
38114;BMP180;23926;53.222;6.354;2022-12-18T00:39:12;102536.00;;;0.40
38114;BMP180;23926;53.222;6.354;2022-12-18T00:41:37;102537.00;;;0.40
38114;BMP180;23926;53.222;6.354;2022-12-18T00:44:21;102524.00;;;0.40
38114;BMP180;23926;53.222;6.354;2022-12-18T00:46:47;102522.00;;;0.30
38114;BMP180;23926;53.222;6.354;2022-12-18T00:49:12;102535.00;;;0.30
38114;BMP180;23926;53.222;6.354;2022-12-18T00:51:38;102540.00;;;0.30
38114;BMP180;23926;53.222;6.354;2022-12-18T00:54:03;102540.00;;;0.30
38114;BMP180;23926;53.222;6.354;2022-12-18T00:56:28;102524.00;;;0.20
38114;BMP180;23926;53.222;6.354;2022-12-18T00:58:53;102516.00;;;0.20
38114;BMP180;23926;53.222;6.354;2022-12-18T01:01:19;102508.00;;;0.00
38114;BMP180;23926;53.222;6.354;2022-12-18T01:03:44;102515.00;;;-0.10
38114;BMP180;23926;53.222;6.354;2022-12-18T01:06:14;102517.00;;;-0.10
38114;BMP180;23926;53.222;6.354;2022-12-18T01:08:39;102526.00;;;-0.10
38114;BMP180;23926;53.222;6.354;2022-12-18T01:11:08;102527.00;;;-0.20
38114;BMP180;23926;53.222;6.354;2022-12-18T01:13:34;102517.00;;;-0.30
38114;BMP180;23926;53.222;6.354;2022-12-18T01:15:59;102543.00;;;-0.40
38114;BMP180;23926;53.222;6.354;2022-12-18T01:18:25;102549.00;;;-0.40
38114;BMP180;23926;53.222;6.354;2022-12-18T01:20:50;102549.00;;;-0.40
38114;BMP180;23926;53.222;6.354;2022-12-18T01:23:15;102552.00;;;-0.40
38114;BMP180;23926;53.222;6.354;2022-12-18T01:25:40;102549.00;;;-0.40
38114;BMP180;23926;53.222;6.354;2022-12-18T01:28:06;102557.00;;;-0.50
38114;BMP180;23926;53.222;6.354;2022-12-18T01:30:31;102565.00;;;-0.60
38114;BMP180;23926;53.222;6.354;2022-12-18T01:32:56;102558.00;;;-0.70
38114;BMP180;23926;53.222;6.354;2022-12-18T01:35:22;102561.00;;;-0.70
38114;BMP180;23926;53.222;6.354;2022-12-18T01:37:47;102577.00;;;-0.80
38114;BMP180;23926;53.222;6.354;2022-12-18T01:40:13;102563.00;;;-0.90
38114;BMP180;23926;53.222;6.354;2022-12-18T01:42:38;102562.00;;;-0.90
38114;BMP180;23926;53.222;6.354;2022-12-18T01:47:36;102559.00;;;-1.10
38114;BMP180;23926;53.222;6.354;2022-12-18T01:52:31;102556.00;;;-1.20
38114;BMP180;23926;53.222;6.354;2022-12-18T01:54:57;102545.00;;;-1.30
38114;BMP180;23926;53.222;6.354;2022-12-18T01:57:24;102564.00;;;-1.40
38114;BMP180;23926;53.222;6.354;2022-12-18T01:59:50;102561.00;;;-1.60
38114;BMP180;23926;53.222;6.354;2022-12-18T02:02:17;102561.00;;;-1.60
38114;BMP180;23926;53.222;6.354;2022-12-18T02:04:43;102569.00;;;-1.60
38114;BMP180;23926;53.222;6.354;2022-12-18T02:07:26;102575.00;;;-1.50
38114;BMP180;23926;53.222;6.354;2022-12-18T02:09:58;102578.00;;;-1.50
38114;BMP180;23926;53.222;6.354;2022-12-18T02:12:25;102573.00;;;-1.50
38114;BMP180;23926;53.222;6.354;2022-12-18T02:14:55;102574.00;;;-1.50
38114;BMP180;23926;53.222;6.354;2022-12-18T02:17:22;102568.00;;;-1.50
38114;BMP180;23926;53.222;6.354;2022-12-18T02:27:18;102552.00;;;-1.60
38114;BMP180;23926;53.222;6.354;2022-12-18T02:29:46;102543.00;;;-1.70
38114;BMP180;23926;53.222;6.354;2022-12-18T02:32:14;102540.00;;;-1.70
38114;BMP180;23926;53.222;6.354;2022-12-18T02:34:41;102534.00;;;-1.80
38114;BMP180;23926;53.222;6.354;2022-12-18T02:37:09;102526.00;;;-1.80
38114;BMP180;23926;53.222;6.354;2022-12-18T02:39:37;102524.00;;;-1.90
38114;BMP180;23926;53.222;6.354;2022-12-18T02:42:03;102529.00;;;-1.90
38114;BMP180;23926;53.222;6.354;2022-12-18T02:44:33;102531.00;;;-1.90
38114;BMP180;23926;53.222;6.354;2022-12-18T02:46:58;102526.00;;;-1.90
38114;BMP180;23926;53.222;6.354;2022-12-18T02:54:32;102532.00;;;-1.90
38114;BMP180;23926;53.222;6.354;2022-12-18T02:57:05;102536.00;;;-1.90
38114;BMP180;23926;53.222;6.354;2022-12-18T02:59:35;102527.00;;;-1.90
38114;BMP180;23926;53.222;6.354;2022-12-18T03:04:49;102547.00;;;-1.90
38114;BMP180;23926;53.222;6.354;2022-12-18T03:07:19;102528.00;;;-2.00
38114;BMP180;23926;53.222;6.354;2022-12-18T03:09:46;102531.00;;;-1.90
38114;BMP180;23926;53.222;6.354;2022-12-18T03:12:21;102536.00;;;-1.90
38114;BMP180;23926;53.222;6.354;2022-12-18T03:15:07;102537.00;;;-1.80
38114;BMP180;23926;53.222;6.354;2022-12-18T03:17:34;102537.00;;;-1.70
38114;BMP180;23926;53.222;6.354;2022-12-18T03:20:02;102529.00;;;-1.60
38114;BMP180;23926;53.222;6.354;2022-12-18T03:22:29;102529.00;;;-1.60
38114;BMP180;23926;53.222;6.354;2022-12-18T03:24:55;102532.00;;;-1.60
38114;BMP180;23926;53.222;6.354;2022-12-18T03:27:21;102537.00;;;-1.60
38114;BMP180;23926;53.222;6.354;2022-12-18T03:30:00;102528.00;;;-1.60
38114;BMP180;23926;53.222;6.354;2022-12-18T03:32:33;102520.00;;;-1.70
38114;BMP180;23926;53.222;6.354;2022-12-18T03:35:02;102526.00;;;-1.70
38114;BMP180;23926;53.222;6.354;2022-12-18T03:37:28;102526.00;;;-1.80
38114;BMP180;23926;53.222;6.354;2022-12-18T03:39:54;102533.00;;;-1.90
38114;BMP180;23926;53.222;6.354;2022-12-18T03:45:10;102534.00;;;-2.10
38114;BMP180;23926;53.222;6.354;2022-12-18T03:47:41;102526.00;;;-2.20
38114;BMP180;23926;53.222;6.354;2022-12-18T03:55:28;102520.00;;;-2.50
38114;BMP180;23926;53.222;6.354;2022-12-18T03:57:55;102525.00;;;-2.50
38114;BMP180;23926;53.222;6.354;2022-12-18T04:00:21;102514.00;;;-2.60
38114;BMP180;23926;53.222;6.354;2022-12-18T04:02:51;102502.00;;;-2.70
38114;BMP180;23926;53.222;6.354;2022-12-18T04:05:18;102510.00;;;-2.80
38114;BMP180;23926;53.222;6.354;2022-12-18T04:07:45;102508.00;;;-2.90
38114;BMP180;23926;53.222;6.354;2022-12-18T04:10:11;102510.00;;;-3.00
38114;BMP180;23926;53.222;6.354;2022-12-18T04:12:37;102519.00;;;-3.00
38114;BMP180;23926;53.222;6.354;2022-12-18T04:15:03;102528.00;;;-3.10
38114;BMP180;23926;53.222;6.354;2022-12-18T04:17:28;102520.00;;;-3.20
38114;BMP180;23926;53.222;6.354;2022-12-18T04:19:54;102525.00;;;-3.30
38114;BMP180;23926;53.222;6.354;2022-12-18T04:22:19;102532.00;;;-3.30
38114;BMP180;23926;53.222;6.354;2022-12-18T04:24:44;102520.00;;;-3.30
38114;BMP180;23926;53.222;6.354;2022-12-18T04:27:10;102514.00;;;-3.40
38114;BMP180;23926;53.222;6.354;2022-12-18T04:29:35;102518.00;;;-3.40
38114;BMP180;23926;53.222;6.354;2022-12-18T04:32:00;102520.00;;;-3.40
38114;BMP180;23926;53.222;6.354;2022-12-18T04:34:25;102524.00;;;-3.50
38114;BMP180;23926;53.222;6.354;2022-12-18T04:36:51;102524.00;;;-3.60
38114;BMP180;23926;53.222;6.354;2022-12-18T04:39:16;102515.00;;;-3.60
38114;BMP180;23926;53.222;6.354;2022-12-18T04:41:41;102515.00;;;-3.70
38114;BMP180;23926;53.222;6.354;2022-12-18T04:44:06;102511.00;;;-3.70
38114;BMP180;23926;53.222;6.354;2022-12-18T04:46:32;102514.00;;;-3.90
38114;BMP180;23926;53.222;6.354;2022-12-18T04:48:57;102509.00;;;-3.90
38114;BMP180;23926;53.222;6.354;2022-12-18T04:51:22;102524.00;;;-4.10
38114;BMP180;23926;53.222;6.354;2022-12-18T04:53:47;102517.00;;;-4.10
38114;BMP180;23926;53.222;6.354;2022-12-18T04:56:13;102520.00;;;-4.20
38114;BMP180;23926;53.222;6.354;2022-12-18T04:58:39;102527.00;;;-4.20
38114;BMP180;23926;53.222;6.354;2022-12-18T05:01:05;102510.00;;;-4.20
38114;BMP180;23926;53.222;6.354;2022-12-18T05:03:31;102499.00;;;-4.10
38114;BMP180;23926;53.222;6.354;2022-12-18T05:05:56;102501.00;;;-4.10
38114;BMP180;23926;53.222;6.354;2022-12-18T05:08:21;102520.00;;;-4.10
38114;BMP180;23926;53.222;6.354;2022-12-18T05:10:46;102529.00;;;-4.20
38114;BMP180;23926;53.222;6.354;2022-12-18T05:13:12;102521.00;;;-4.20
38114;BMP180;23926;53.222;6.354;2022-12-18T05:15:37;102524.00;;;-4.20
38114;BMP180;23926;53.222;6.354;2022-12-18T05:18:02;102525.00;;;-4.20
38114;BMP180;23926;53.222;6.354;2022-12-18T05:20:28;102528.00;;;-4.30
38114;BMP180;23926;53.222;6.354;2022-12-18T05:22:54;102521.00;;;-4.30
38114;BMP180;23926;53.222;6.354;2022-12-18T05:25:19;102520.00;;;-4.30
38114;BMP180;23926;53.222;6.354;2022-12-18T05:27:45;102517.00;;;-4.30
38114;BMP180;23926;53.222;6.354;2022-12-18T05:30:10;102508.00;;;-4.30
38114;BMP180;23926;53.222;6.354;2022-12-18T05:32:36;102512.00;;;-4.30
38114;BMP180;23926;53.222;6.354;2022-12-18T05:35:01;102515.00;;;-4.30
38114;BMP180;23926;53.222;6.354;2022-12-18T05:37:26;102530.00;;;-4.30
38114;BMP180;23926;53.222;6.354;2022-12-18T05:39:52;102534.00;;;-4.30
38114;BMP180;23926;53.222;6.354;2022-12-18T05:42:17;102533.00;;;-4.30
38114;BMP180;23926;53.222;6.354;2022-12-18T05:44:43;102536.00;;;-4.40
38114;BMP180;23926;53.222;6.354;2022-12-18T05:47:08;102532.00;;;-4.40
38114;BMP180;23926;53.222;6.354;2022-12-18T05:49:33;102529.00;;;-4.40
38114;BMP180;23926;53.222;6.354;2022-12-18T05:51:59;102545.00;;;-4.40
38114;BMP180;23926;53.222;6.354;2022-12-18T05:54:26;102550.00;;;-4.50
38114;BMP180;23926;53.222;6.354;2022-12-18T05:56:52;102559.00;;;-4.40
38114;BMP180;23926;53.222;6.354;2022-12-18T05:59:17;102559.00;;;-4.50
38114;BMP180;23926;53.222;6.354;2022-12-18T06:01:42;102558.00;;;-4.40
38114;BMP180;23926;53.222;6.354;2022-12-18T06:04:08;102558.00;;;-4.40
38114;BMP180;23926;53.222;6.354;2022-12-18T06:06:33;102564.00;;;-4.40
38114;BMP180;23926;53.222;6.354;2022-12-18T06:08:58;102568.00;;;-4.40
38114;BMP180;23926;53.222;6.354;2022-12-18T06:11:25;102569.00;;;-4.30
38114;BMP180;23926;53.222;6.354;2022-12-18T06:13:54;102568.00;;;-4.40
38114;BMP180;23926;53.222;6.354;2022-12-18T06:16:20;102561.00;;;-4.30
38114;BMP180;23926;53.222;6.354;2022-12-18T06:18:45;102558.00;;;-4.30
38114;BMP180;23926;53.222;6.354;2022-12-18T06:21:11;102556.00;;;-4.30
38114;BMP180;23926;53.222;6.354;2022-12-18T06:23:36;102548.00;;;-4.30
38114;BMP180;23926;53.222;6.354;2022-12-18T06:26:05;102557.00;;;-4.20
38114;BMP180;23926;53.222;6.354;2022-12-18T06:28:30;102545.00;;;-4.20
38114;BMP180;23926;53.222;6.354;2022-12-18T06:30:56;102555.00;;;-4.20
38114;BMP180;23926;53.222;6.354;2022-12-18T06:33:21;102550.00;;;-4.20
38114;BMP180;23926;53.222;6.354;2022-12-18T06:35:46;102542.00;;;-4.30
38114;BMP180;23926;53.222;6.354;2022-12-18T06:38:11;102540.00;;;-4.30
38114;BMP180;23926;53.222;6.354;2022-12-18T06:40:37;102541.00;;;-4.30
38114;BMP180;23926;53.222;6.354;2022-12-18T06:43:04;102524.00;;;-4.40
38114;BMP180;23926;53.222;6.354;2022-12-18T06:45:29;102534.00;;;-4.40
38114;BMP180;23926;53.222;6.354;2022-12-18T06:47:54;102528.00;;;-4.50
38114;BMP180;23926;53.222;6.354;2022-12-18T06:50:20;102516.00;;;-4.50
38114;BMP180;23926;53.222;6.354;2022-12-18T06:52:45;102520.00;;;-4.50
38114;BMP180;23926;53.222;6.354;2022-12-18T06:55:10;102514.00;;;-4.60
38114;BMP180;23926;53.222;6.354;2022-12-18T06:57:36;102505.00;;;-4.60
38114;BMP180;23926;53.222;6.354;2022-12-18T07:00:02;102516.00;;;-4.60
38114;BMP180;23926;53.222;6.354;2022-12-18T07:02:27;102512.00;;;-4.50
38114;BMP180;23926;53.222;6.354;2022-12-18T07:04:53;102505.00;;;-4.50
38114;BMP180;23926;53.222;6.354;2022-12-18T07:07:18;102510.00;;;-4.40
38114;BMP180;23926;53.222;6.354;2022-12-18T07:09:43;102511.00;;;-4.30
38114;BMP180;23926;53.222;6.354;2022-12-18T07:12:09;102506.00;;;-4.30
38114;BMP180;23926;53.222;6.354;2022-12-18T07:14:34;102506.00;;;-4.20
38114;BMP180;23926;53.222;6.354;2022-12-18T07:16:59;102498.00;;;-4.10
38114;BMP180;23926;53.222;6.354;2022-12-18T07:19:24;102504.00;;;-4.10
38114;BMP180;23926;53.222;6.354;2022-12-18T07:21:50;102503.00;;;-4.10
38114;BMP180;23926;53.222;6.354;2022-12-18T07:24:15;102504.00;;;-4.10
38114;BMP180;23926;53.222;6.354;2022-12-18T07:26:41;102500.00;;;-4.10
38114;BMP180;23926;53.222;6.354;2022-12-18T07:29:06;102500.00;;;-4.10
38114;BMP180;23926;53.222;6.354;2022-12-18T07:31:31;102498.00;;;-4.20
38114;BMP180;23926;53.222;6.354;2022-12-18T07:33:57;102498.00;;;-4.20
38114;BMP180;23926;53.222;6.354;2022-12-18T07:36:22;102491.00;;;-4.20
38114;BMP180;23926;53.222;6.354;2022-12-18T07:38:48;102483.00;;;-4.20
38114;BMP180;23926;53.222;6.354;2022-12-18T07:41:13;102495.00;;;-4.20
38114;BMP180;23926;53.222;6.354;2022-12-18T07:43:39;102495.00;;;-4.30
38114;BMP180;23926;53.222;6.354;2022-12-18T07:46:05;102499.00;;;-4.20
38114;BMP180;23926;53.222;6.354;2022-12-18T07:48:31;102506.00;;;-4.20
38114;BMP180;23926;53.222;6.354;2022-12-18T07:50:59;102512.00;;;-4.20
38114;BMP180;23926;53.222;6.354;2022-12-18T07:53:25;102510.00;;;-4.20
38114;BMP180;23926;53.222;6.354;2022-12-18T07:55:55;102520.00;;;-4.20
38114;BMP180;23926;53.222;6.354;2022-12-18T07:58:20;102520.00;;;-4.10
38114;BMP180;23926;53.222;6.354;2022-12-18T08:00:45;102519.00;;;-4.00
38114;BMP180;23926;53.222;6.354;2022-12-18T08:03:13;102512.00;;;-3.90
38114;BMP180;23926;53.222;6.354;2022-12-18T08:05:39;102502.00;;;-3.90
38114;BMP180;23926;53.222;6.354;2022-12-18T08:08:04;102503.00;;;-3.80
38114;BMP180;23926;53.222;6.354;2022-12-18T08:10:29;102496.00;;;-3.60
38114;BMP180;23926;53.222;6.354;2022-12-18T08:12:54;102494.00;;;-3.60
38114;BMP180;23926;53.222;6.354;2022-12-18T08:15:20;102497.00;;;-3.50
38114;BMP180;23926;53.222;6.354;2022-12-18T08:17:45;102493.00;;;-3.40
38114;BMP180;23926;53.222;6.354;2022-12-18T08:20:12;102495.00;;;-3.30
38114;BMP180;23926;53.222;6.354;2022-12-18T08:22:40;102504.00;;;-3.20
38114;BMP180;23926;53.222;6.354;2022-12-18T08:25:05;102486.00;;;-3.10
38114;BMP180;23926;53.222;6.354;2022-12-18T08:27:31;102490.00;;;-2.90
38114;BMP180;23926;53.222;6.354;2022-12-18T08:29:56;102498.00;;;-2.80
38114;BMP180;23926;53.222;6.354;2022-12-18T08:32:22;102490.00;;;-2.80
38114;BMP180;23926;53.222;6.354;2022-12-18T08:34:47;102500.00;;;-2.70
38114;BMP180;23926;53.222;6.354;2022-12-18T08:37:12;102503.00;;;-2.60
38114;BMP180;23926;53.222;6.354;2022-12-18T08:39:37;102510.00;;;-2.60
38114;BMP180;23926;53.222;6.354;2022-12-18T08:42:03;102514.00;;;-2.50
38114;BMP180;23926;53.222;6.354;2022-12-18T08:44:47;102514.00;;;-2.50
38114;BMP180;23926;53.222;6.354;2022-12-18T08:47:12;102521.00;;;-2.50
38114;BMP180;23926;53.222;6.354;2022-12-18T08:49:37;102517.00;;;-2.40
38114;BMP180;23926;53.222;6.354;2022-12-18T08:52:02;102537.00;;;-2.40
38114;BMP180;23926;53.222;6.354;2022-12-18T08:54:28;102536.00;;;-2.40
38114;BMP180;23926;53.222;6.354;2022-12-18T08:56:53;102545.00;;;-2.30
38114;BMP180;23926;53.222;6.354;2022-12-18T08:59:19;102542.00;;;-2.20
38114;BMP180;23926;53.222;6.354;2022-12-18T09:01:44;102541.00;;;-2.20
38114;BMP180;23926;53.222;6.354;2022-12-18T09:04:10;102536.00;;;-2.20
38114;BMP180;23926;53.222;6.354;2022-12-18T09:06:35;102536.00;;;-2.10
38114;BMP180;23926;53.222;6.354;2022-12-18T09:09:01;102530.00;;;-2.00
38114;BMP180;23926;53.222;6.354;2022-12-18T09:11:27;102542.00;;;-1.90
38114;BMP180;23926;53.222;6.354;2022-12-18T09:13:53;102541.00;;;-1.80
38114;BMP180;23926;53.222;6.354;2022-12-18T09:16:22;102539.00;;;-1.80
38114;BMP180;23926;53.222;6.354;2022-12-18T09:18:48;102535.00;;;-1.60
38114;BMP180;23926;53.222;6.354;2022-12-18T09:21:14;102525.00;;;-1.60
38114;BMP180;23926;53.222;6.354;2022-12-18T09:23:40;102534.00;;;-1.50
38114;BMP180;23926;53.222;6.354;2022-12-18T09:26:06;102538.00;;;-1.40
38114;BMP180;23926;53.222;6.354;2022-12-18T09:28:31;102540.00;;;-1.40
38114;BMP180;23926;53.222;6.354;2022-12-18T09:30:56;102530.00;;;-1.20
38114;BMP180;23926;53.222;6.354;2022-12-18T09:33:22;102527.00;;;-1.10
38114;BMP180;23926;53.222;6.354;2022-12-18T09:35:47;102521.00;;;-1.00
38114;BMP180;23926;53.222;6.354;2022-12-18T09:38:17;102521.00;;;-1.00
38114;BMP180;23926;53.222;6.354;2022-12-18T09:40:52;102528.00;;;-0.80
38114;BMP180;23926;53.222;6.354;2022-12-18T09:43:19;102530.00;;;-0.80
38114;BMP180;23926;53.222;6.354;2022-12-18T09:45:46;102535.00;;;-0.80
38114;BMP180;23926;53.222;6.354;2022-12-18T09:48:18;102529.00;;;-0.80
38114;BMP180;23926;53.222;6.354;2022-12-18T09:50:45;102530.00;;;-0.80
38114;BMP180;23926;53.222;6.354;2022-12-18T09:53:15;102526.00;;;-0.80
38114;BMP180;23926;53.222;6.354;2022-12-18T09:55:42;102526.00;;;-0.90
38114;BMP180;23926;53.222;6.354;2022-12-18T10:00:35;102520.00;;;-1.00
38114;BMP180;23926;53.222;6.354;2022-12-18T10:03:08;102513.00;;;-1.00
38114;BMP180;23926;53.222;6.354;2022-12-18T10:05:40;102517.00;;;-1.00
38114;BMP180;23926;53.222;6.354;2022-12-18T10:15:24;102491.00;;;-1.00
38114;BMP180;23926;53.222;6.354;2022-12-18T10:17:56;102494.00;;;-0.90
38114;BMP180;23926;53.222;6.354;2022-12-18T10:20:40;102481.00;;;-1.00
38114;BMP180;23926;53.222;6.354;2022-12-18T10:23:18;102495.00;;;-0.90
38114;BMP180;23926;53.222;6.354;2022-12-18T10:28:14;102496.00;;;-0.90
38114;BMP180;23926;53.222;6.354;2022-12-18T10:30:42;102489.00;;;-0.80
38114;BMP180;23926;53.222;6.354;2022-12-18T10:33:20;102464.00;;;-0.80
38114;BMP180;23926;53.222;6.354;2022-12-18T10:35:47;102469.00;;;-0.80
38114;BMP180;23926;53.222;6.354;2022-12-18T10:40:54;102463.00;;;-0.80
38114;BMP180;23926;53.222;6.354;2022-12-18T10:43:41;102449.00;;;-0.80
38114;BMP180;23926;53.222;6.354;2022-12-18T10:48:35;102427.00;;;-0.60
38114;BMP180;23926;53.222;6.354;2022-12-18T10:51:01;102435.00;;;-0.50
38114;BMP180;23926;53.222;6.354;2022-12-18T10:53:28;102439.00;;;-0.40
38114;BMP180;23926;53.222;6.354;2022-12-18T10:55:55;102445.00;;;-0.30
38114;BMP180;23926;53.222;6.354;2022-12-18T10:58:28;102454.00;;;-0.30
38114;BMP180;23926;53.222;6.354;2022-12-18T11:01:04;102453.00;;;-0.10
38114;BMP180;23926;53.222;6.354;2022-12-18T11:03:35;102449.00;;;0.00
38114;BMP180;23926;53.222;6.354;2022-12-18T11:06:04;102450.00;;;0.00
38114;BMP180;23926;53.222;6.354;2022-12-18T11:08:30;102446.00;;;0.00
38114;BMP180;23926;53.222;6.354;2022-12-18T11:10:55;102436.00;;;0.10
38114;BMP180;23926;53.222;6.354;2022-12-18T11:13:21;102442.00;;;0.20
38114;BMP180;23926;53.222;6.354;2022-12-18T11:15:47;102433.00;;;0.30
38114;BMP180;23926;53.222;6.354;2022-12-18T11:18:20;102425.00;;;0.30
38114;BMP180;23926;53.222;6.354;2022-12-18T11:20:51;102419.00;;;0.40
38114;BMP180;23926;53.222;6.354;2022-12-18T11:23:17;102426.00;;;0.40
38114;BMP180;23926;53.222;6.354;2022-12-18T11:25:50;102425.00;;;0.40
38114;BMP180;23926;53.222;6.354;2022-12-18T11:30:55;102421.00;;;0.50
38114;BMP180;23926;53.222;6.354;2022-12-18T11:33:34;102409.00;;;0.50
38114;BMP180;23926;53.222;6.354;2022-12-18T11:36:00;102417.00;;;0.60
38114;BMP180;23926;53.222;6.354;2022-12-18T11:38:29;102413.00;;;0.60
38114;BMP180;23926;53.222;6.354;2022-12-18T11:43:28;102408.00;;;0.60
38114;BMP180;23926;53.222;6.354;2022-12-18T11:45:56;102401.00;;;0.60
38114;BMP180;23926;53.222;6.354;2022-12-18T11:48:32;102398.00;;;0.60
38114;BMP180;23926;53.222;6.354;2022-12-18T11:51:01;102389.00;;;0.60
38114;BMP180;23926;53.222;6.354;2022-12-18T11:53:27;102390.00;;;0.70
38114;BMP180;23926;53.222;6.354;2022-12-18T12:03:49;102362.00;;;0.70
38114;BMP180;23926;53.222;6.354;2022-12-18T12:16:18;102331.00;;;0.70
38114;BMP180;23926;53.222;6.354;2022-12-18T12:21:34;102323.00;;;0.80
38114;BMP180;23926;53.222;6.354;2022-12-18T12:24:04;102317.00;;;0.80
38114;BMP180;23926;53.222;6.354;2022-12-18T12:39:16;102287.00;;;0.90
38114;BMP180;23926;53.222;6.354;2022-12-18T12:41:43;102272.00;;;0.90
38114;BMP180;23926;53.222;6.354;2022-12-18T12:44:29;102272.00;;;0.90
38114;BMP180;23926;53.222;6.354;2022-12-18T12:46:56;102261.00;;;1.00
38114;BMP180;23926;53.222;6.354;2022-12-18T12:49:22;102262.00;;;1.00
38114;BMP180;23926;53.222;6.354;2022-12-18T12:51:54;102267.00;;;1.00
38114;BMP180;23926;53.222;6.354;2022-12-18T12:54:23;102262.00;;;1.00
38114;BMP180;23926;53.222;6.354;2022-12-18T13:07:06;102239.00;;;1.20
38114;BMP180;23926;53.222;6.354;2022-12-18T13:09:36;102249.00;;;1.30
38114;BMP180;23926;53.222;6.354;2022-12-18T13:12:20;102246.00;;;1.30
38114;BMP180;23926;53.222;6.354;2022-12-18T13:15:24;102252.00;;;1.30
38114;BMP180;23926;53.222;6.354;2022-12-18T13:18:35;102240.00;;;1.30
38114;BMP180;23926;53.222;6.354;2022-12-18T13:20:36;102231.00;;;1.30
38114;BMP180;23926;53.222;6.354;2022-12-18T13:25:46;102238.00;;;1.30
38114;BMP180;23926;53.222;6.354;2022-12-18T13:28:12;102234.00;;;1.20
38114;BMP180;23926;53.222;6.354;2022-12-18T13:30:45;102225.00;;;1.20
38114;BMP180;23926;53.222;6.354;2022-12-18T13:45:45;102221.00;;;1.40
38114;BMP180;23926;53.222;6.354;2022-12-18T13:48:16;102222.00;;;1.40
38114;BMP180;23926;53.222;6.354;2022-12-18T13:50:42;102224.00;;;1.40
38114;BMP180;23926;53.222;6.354;2022-12-18T13:53:13;102229.00;;;1.40
38114;BMP180;23926;53.222;6.354;2022-12-18T13:55:44;102230.00;;;1.40
38114;BMP180;23926;53.222;6.354;2022-12-18T13:58:11;102225.00;;;1.40
38114;BMP180;23926;53.222;6.354;2022-12-18T14:00:40;102214.00;;;1.40
38114;BMP180;23926;53.222;6.354;2022-12-18T14:03:16;102217.00;;;1.40
38114;BMP180;23926;53.222;6.354;2022-12-18T14:05:43;102215.00;;;1.30
38114;BMP180;23926;53.222;6.354;2022-12-18T14:08:11;102215.00;;;1.30
38114;BMP180;23926;53.222;6.354;2022-12-18T14:10:41;102208.00;;;1.30
38114;BMP180;23926;53.222;6.354;2022-12-18T14:13:08;102201.00;;;1.30
38114;BMP180;23926;53.222;6.354;2022-12-18T14:15:44;102204.00;;;1.30
38114;BMP180;23926;53.222;6.354;2022-12-18T14:20:39;102202.00;;;1.30
38114;BMP180;23926;53.222;6.354;2022-12-18T14:23:09;102201.00;;;1.30
38114;BMP180;23926;53.222;6.354;2022-12-18T14:25:49;102202.00;;;1.20
38114;BMP180;23926;53.222;6.354;2022-12-18T14:28:14;102196.00;;;1.20
38114;BMP180;23926;53.222;6.354;2022-12-18T14:30:41;102184.00;;;1.20
38114;BMP180;23926;53.222;6.354;2022-12-18T14:33:10;102191.00;;;1.20
38114;BMP180;23926;53.222;6.354;2022-12-18T14:35:40;102183.00;;;1.30
38114;BMP180;23926;53.222;6.354;2022-12-18T14:40:40;102171.00;;;1.30
38114;BMP180;23926;53.222;6.354;2022-12-18T14:43:08;102168.00;;;1.30
38114;BMP180;23926;53.222;6.354;2022-12-18T14:45:34;102159.00;;;1.40
38114;BMP180;23926;53.222;6.354;2022-12-18T14:48:11;102155.00;;;1.40
38114;BMP180;23926;53.222;6.354;2022-12-18T14:50:38;102153.00;;;1.30
38114;BMP180;23926;53.222;6.354;2022-12-18T14:53:18;102160.00;;;1.30
38114;BMP180;23926;53.222;6.354;2022-12-18T14:55:45;102140.00;;;1.30
38114;BMP180;23926;53.222;6.354;2022-12-18T14:58:11;102121.00;;;1.30
38114;BMP180;23926;53.222;6.354;2022-12-18T15:00:38;102138.00;;;1.30
38114;BMP180;23926;53.222;6.354;2022-12-18T15:03:06;102132.00;;;1.30
38114;BMP180;23926;53.222;6.354;2022-12-18T15:05:32;102130.00;;;1.30
38114;BMP180;23926;53.222;6.354;2022-12-18T15:07:58;102102.00;;;1.20
38114;BMP180;23926;53.222;6.354;2022-12-18T15:10:28;102112.00;;;1.20
38114;BMP180;23926;53.222;6.354;2022-12-18T15:20:32;102086.00;;;1.00
38114;BMP180;23926;53.222;6.354;2022-12-18T15:22:58;102088.00;;;1.00
38114;BMP180;23926;53.222;6.354;2022-12-18T15:25:35;102090.00;;;0.90
38114;BMP180;23926;53.222;6.354;2022-12-18T15:28:02;102082.00;;;0.90
38114;BMP180;23926;53.222;6.354;2022-12-18T15:30:28;102085.00;;;0.90
38114;BMP180;23926;53.222;6.354;2022-12-18T15:33:15;102080.00;;;0.90
38114;BMP180;23926;53.222;6.354;2022-12-18T15:35:38;102079.00;;;0.90
38114;BMP180;23926;53.222;6.354;2022-12-18T15:38:03;102066.00;;;0.90
38114;BMP180;23926;53.222;6.354;2022-12-18T15:40:29;102055.00;;;0.90
38114;BMP180;23926;53.222;6.354;2022-12-18T15:42:54;102054.00;;;0.90
38114;BMP180;23926;53.222;6.354;2022-12-18T15:45:38;102056.00;;;0.90
38114;BMP180;23926;53.222;6.354;2022-12-18T15:48:20;102031.00;;;0.90
38114;BMP180;23926;53.222;6.354;2022-12-18T15:50:45;102038.00;;;0.90
38114;BMP180;23926;53.222;6.354;2022-12-18T15:53:11;102020.00;;;0.90
38114;BMP180;23926;53.222;6.354;2022-12-18T15:55:36;102020.00;;;0.90
38114;BMP180;23926;53.222;6.354;2022-12-18T15:58:21;102013.00;;;0.90
38114;BMP180;23926;53.222;6.354;2022-12-18T16:00:46;102011.00;;;0.90
38114;BMP180;23926;53.222;6.354;2022-12-18T16:03:11;102004.00;;;0.90
38114;BMP180;23926;53.222;6.354;2022-12-18T16:05:36;102007.00;;;0.90